• Join FlightAware (Why Join?)
  • Login
  • US Flag 
01:00PM EST


 

Airport Tracker/Info


-or-


 

Live Flight TrackerFlight Track Log ✈ N65624 ✈ 22-Jul-2014 ✈ KORL - KSEF

Flight Track Log - Related Links

Times and Time Zones

All times are in EDT time to prevent confusion due to time zone crossing. See the N65624 flight status page for this flight to view local times or setup timezone preferences in your user account.

Time Position Orientation Groundspeed Altitude Reporting Facility
EDT Latitude Longitude Course Direction KTS MPH feet Rate Location/Type
08:14AM 28.5500 -81.3167 300° West 78 90 600  Level Orlando TRACON
08:16AM 28.5667 -81.3500 300° West 99 114 1,400 420 Climbing Orlando TRACON
08:17AM 28.5500 -81.3667 221° Southwest 96 110 1,700 300 Climbing Orlando TRACON
08:18AM 28.5500 -81.4000 270° West 91 105 2,100 420 Climbing Orlando TRACON
08:19AM 28.5167 -81.4000 180° South 83 96 2,600 360 Climbing Orlando TRACON
08:20AM 28.5000 -81.4000 180° South 93 107 2,900 180 Climbing Orlando TRACON
08:21AM 28.4833 -81.4333 240° Southwest 100 115 3,000  Climbing Orlando TRACON
08:22AM 28.4667 -81.4500 221° Southwest 102 117 3,000  Level Orlando TRACON
08:23AM 28.4500 -81.4667 221° Southwest 97 112 3,000 60 Level Orlando TRACON
08:24AM 28.4167 -81.5000 221° Southwest 96 110 3,200 240 Climbing Orlando TRACON
08:25AM 28.4000 -81.5000 180° South 93 107 3,500 120 Climbing Orlando TRACON
08:26AM 28.3667 -81.5333 221° Southwest 101 116 3,500  Level Orlando TRACON
08:27AM 28.3500 -81.5500 221° Southwest 99 114 3,500  Level Orlando TRACON
08:28AM 28.3167 -81.5500 180° South 93 107 3,600  Climbing Orlando TRACON
08:29AM 28.3000 -81.5333 139° Southeast 98 113 3,600  Level Orlando TRACON
08:30AM 28.2833 -81.5500 221° Southwest 103 119 3,600  Level Orlando TRACON
08:31AM 28.2333 -81.5500 180° South 105 121 3,700  Climbing Orlando TRACON
08:32AM 28.2167 -81.5500 180° South 105 121 3,600 -120 Descending Orlando TRACON
08:33AM 28.1833 -81.5667 204° Southwest 109 125 3,500 -60 Descending Orlando TRACON
08:34AM 28.1667 -81.5667 180° South 102 117 3,500  Level Orlando TRACON
08:35AM 28.1333 -81.5667 180° South 96 110 3,500  Level Orlando TRACON
08:36AM 28.1167 -81.5667 180° South 97 112 3,500  Level Orlando TRACON
08:37AM 28.0833 -81.5667 180° South 100 115 3,500  Level Orlando TRACON
08:38AM 28.0536 -81.5681 182° South 99 114 3,500  Level Miami Center
08:39AM 28.0258 -81.5694 183° South 101 116 3,500  Level Miami Center
08:40AM 27.9917 -81.5683 178° South 101 116 3,500  Level Miami Center
08:41AM 27.9639 -81.5700 183° South 101 116 3,500  Level Miami Center
08:42AM 27.9350 -81.5736 186° South 101 116 3,500  Level Miami Center
08:43AM 27.9072 -81.5803 192° South 101 116 3,500  Level Miami Center
08:44AM 27.8794 -81.5828 185° South 101 116 3,500  Level Miami Center
08:45AM 27.8517 -81.5894 192° South 101 116 3,500  Level Miami Center
08:46AM 27.8256 -81.5842 170° South 105 121 3,600 -60 Climbing Miami Center
08:47AM 27.8031 -81.5647 143° Southeast 105 121 3,400 -60 Descending Miami Center
08:48AM 27.7714 -81.5511 159° South 104 120 3,500  Climbing Miami Center
08:49AM 27.7444 -81.5497 177° South 100 115 3,500  Level Miami Center
08:50AM 27.7175 -81.5542 188° South 100 115 3,500  Level Miami Center
08:51AM 27.6900 -81.5503 173° South 100 115 3,500  Level Miami Center
08:52AM 27.6633 -81.5411 163° South 100 115 3,500  Level Miami Center
08:53AM 27.6361 -81.5292 159° South 102 117 3,500  Level Miami Center
08:54AM 27.6075 -81.5269 176° South 102 117 3,500  Level Miami Center
08:55AM 27.5811 -81.5194 166° South 102 117 3,500 -60 Level Miami Center
08:56AM 27.5636 -81.4919 126° Southeast 105 121 3,400 -60 Descending Miami Center
08:57AM 27.5400 -81.4642 134° Southeast 105 121 3,400  Level Miami Center